sensor_id;sensor_type;location;lat;lon;timestamp;temperature;humidity
70867;HTU21D;58487;53.474;49.470;2022-07-19T00:00:32;19.62;106.98
70867;HTU21D;58487;53.474;49.470;2022-07-19T00:02:58;19.59;106.99
70867;HTU21D;58487;53.474;49.470;2022-07-19T00:05:24;19.46;106.79
70867;HTU21D;58487;53.474;49.470;2022-07-19T00:07:51;19.45;106.88
70867;HTU21D;58487;53.474;49.470;2022-07-19T00:10:18;19.50;106.82
70867;HTU21D;58487;53.474;49.470;2022-07-19T00:12:46;19.43;106.62
70867;HTU21D;58487;53.474;49.470;2022-07-19T00:15:14;19.43;106.74
70867;HTU21D;58487;53.474;49.470;2022-07-19T00:17:44;19.54;107.04
70867;HTU21D;58487;53.474;49.470;2022-07-19T00:20:13;19.44;106.83
70867;HTU21D;58487;53.474;49.470;2022-07-19T00:22:40;19.45;106.85
70867;HTU21D;58487;53.474;49.470;2022-07-19T00:25:07;19.42;106.73
70867;HTU21D;58487;53.474;49.470;2022-07-19T00:27:33;19.42;106.79
70867;HTU21D;58487;53.474;49.470;2022-07-19T00:30:00;19.42;106.70
70867;HTU21D;58487;53.474;49.470;2022-07-19T00:32:26;19.47;106.96
70867;HTU21D;58487;53.474;49.470;2022-07-19T00:34:52;19.46;106.87
70867;HTU21D;58487;53.474;49.470;2022-07-19T00:37:18;19.45;104.51
70867;HTU21D;58487;53.474;49.470;2022-07-19T00:39:44;19.67;101.02
70867;HTU21D;58487;53.474;49.470;2022-07-19T00:42:09;19.96;96.67
70867;HTU21D;58487;53.474;49.470;2022-07-19T00:44:36;20.12;93.09
70867;HTU21D;58487;53.474;49.470;2022-07-19T00:47:02;20.30;92.59
70867;HTU21D;58487;53.474;49.470;2022-07-19T00:49:28;20.41;118.99
70867;HTU21D;58487;53.474;49.470;2022-07-19T00:51:56;11.07;118.99
70867;HTU21D;58487;53.474;49.470;2022-07-19T00:54:23;20.28;118.99
70867;HTU21D;58487;53.474;49.470;2022-07-19T00:56:51;20.48;90.39
70867;HTU21D;58487;53.474;49.470;2022-07-19T00:59:18;20.48;88.21
70867;HTU21D;58487;53.474;49.470;2022-07-19T01:01:45;20.44;89.21
70867;HTU21D;58487;53.474;49.470;2022-07-19T01:04:11;20.39;88.07
70867;HTU21D;58487;53.474;49.470;2022-07-19T01:06:37;20.35;100.11
70867;HTU21D;58487;53.474;49.470;2022-07-19T01:09:04;20.33;88.87
70867;HTU21D;58487;53.474;49.470;2022-07-19T01:11:31;20.29;88.56
70867;HTU21D;58487;53.474;49.470;2022-07-19T01:13:57;20.32;89.76
70867;HTU21D;58487;53.474;49.470;2022-07-19T01:16:23;20.26;87.65
70867;HTU21D;58487;53.474;49.470;2022-07-19T01:18:49;20.18;85.23
70867;HTU21D;58487;53.474;49.470;2022-07-19T01:21:21;20.16;85.64
70867;HTU21D;58487;53.474;49.470;2022-07-19T01:23:48;20.13;89.17
70867;HTU21D;58487;53.474;49.470;2022-07-19T01:26:14;20.06;94.74
70867;HTU21D;58487;53.474;49.470;2022-07-19T01:28:42;19.99;102.62
70867;HTU21D;58487;53.474;49.470;2022-07-19T01:31:08;19.89;82.87
70867;HTU21D;58487;53.474;49.470;2022-07-19T01:33:44;19.83;85.39
70867;HTU21D;58487;53.474;49.470;2022-07-19T01:36:10;19.80;85.29
70867;HTU21D;58487;53.474;49.470;2022-07-19T01:38:37;19.68;110.04
70867;HTU21D;58487;53.474;49.470;2022-07-19T01:41:04;19.62;84.52
70867;HTU21D;58487;53.474;49.470;2022-07-19T01:43:31;19.55;106.14
70867;HTU21D;58487;53.474;49.470;2022-07-19T01:45:57;19.43;89.60
70867;HTU21D;58487;53.474;49.470;2022-07-19T01:48:24;19.47;112.88
70867;HTU21D;58487;53.474;49.470;2022-07-19T01:50:50;19.30;111.09
70867;HTU21D;58487;53.474;49.470;2022-07-19T01:53:16;19.27;91.46
70867;HTU21D;58487;53.474;49.470;2022-07-19T01:55:42;19.06;87.09
70867;HTU21D;58487;53.474;49.470;2022-07-19T01:58:08;19.05;118.99
70867;HTU21D;58487;53.474;49.470;2022-07-19T02:00:34;19.08;118.99
70867;HTU21D;58487;53.474;49.470;2022-07-19T02:03:00;19.00;118.99
70867;HTU21D;58487;53.474;49.470;2022-07-19T02:05:26;19.01;98.40
70867;HTU21D;58487;53.474;49.470;2022-07-19T02:07:52;18.97;86.55
70867;HTU21D;58487;53.474;49.470;2022-07-19T02:10:18;18.99;94.49
70867;HTU21D;58487;53.474;49.470;2022-07-19T02:12:45;18.84;98.10
70867;HTU21D;58487;53.474;49.470;2022-07-19T02:15:11;18.69;96.29
70867;HTU21D;58487;53.474;49.470;2022-07-19T02:17:37;18.83;86.32
70867;HTU21D;58487;53.474;49.470;2022-07-19T02:20:04;18.78;87.73
70867;HTU21D;58487;53.474;49.470;2022-07-19T02:22:30;18.70;89.66
70867;HTU21D;58487;53.474;49.470;2022-07-19T02:24:56;18.72;85.36
70867;HTU21D;58487;53.474;49.470;2022-07-19T02:27:22;18.78;86.86
70867;HTU21D;58487;53.474;49.470;2022-07-19T02:29:48;18.66;87.25
70867;HTU21D;58487;53.474;49.470;2022-07-19T02:32:15;18.61;106.65
70867;HTU21D;58487;53.474;49.470;2022-07-19T02:34:40;18.58;87.83
70867;HTU21D;58487;53.474;49.470;2022-07-19T02:37:06;18.53;98.16
70867;HTU21D;58487;53.474;49.470;2022-07-19T02:39:33;18.54;89.09
70867;HTU21D;58487;53.474;49.470;2022-07-19T02:41:59;18.52;84.87
70867;HTU21D;58487;53.474;49.470;2022-07-19T02:44:25;18.51;85.46
70867;HTU21D;58487;53.474;49.470;2022-07-19T02:46:51;18.47;84.93
70867;HTU21D;58487;53.474;49.470;2022-07-19T02:49:17;18.44;83.75
70867;HTU21D;58487;53.474;49.470;2022-07-19T02:51:43;18.42;88.91
70867;HTU21D;58487;53.474;49.470;2022-07-19T02:54:09;18.38;92.01
70867;HTU21D;58487;53.474;49.470;2022-07-19T02:56:35;18.30;118.99
70867;HTU21D;58487;53.474;49.470;2022-07-19T02:59:04;17.55;118.99
70867;HTU21D;58487;53.474;49.470;2022-07-19T03:01:30;17.39;118.99
70867;HTU21D;58487;53.474;49.470;2022-07-19T03:03:57;17.83;118.99
70867;HTU21D;58487;53.474;49.470;2022-07-19T03:06:23;17.53;118.99
70867;HTU21D;58487;53.474;49.470;2022-07-19T03:08:49;18.03;118.99
70867;HTU21D;58487;53.474;49.470;2022-07-19T03:11:15;17.92;118.99
70867;HTU21D;58487;53.474;49.470;2022-07-19T03:13:41;17.99;114.55
70867;HTU21D;58487;53.474;49.470;2022-07-19T03:16:07;17.63;118.99
70867;HTU21D;58487;53.474;49.470;2022-07-19T03:18:33;17.73;112.57
70867;HTU21D;58487;53.474;49.470;2022-07-19T03:21:00;18.41;94.28
70867;HTU21D;58487;53.474;49.470;2022-07-19T03:23:31;18.26;94.39
70867;HTU21D;58487;53.474;49.470;2022-07-19T03:25:57;18.07;100.29
70867;HTU21D;58487;53.474;49.470;2022-07-19T03:28:23;17.87;118.99
70867;HTU21D;58487;53.474;49.470;2022-07-19T03:30:49;17.61;110.02
70867;HTU21D;58487;53.474;49.470;2022-07-19T03:33:15;17.56;104.83
70867;HTU21D;58487;53.474;49.470;2022-07-19T03:35:45;17.82;118.99
70867;HTU21D;58487;53.474;49.470;2022-07-19T03:38:13;18.07;118.99
70867;HTU21D;58487;53.474;49.470;2022-07-19T03:40:41;18.12;118.99
70867;HTU21D;58487;53.474;49.470;2022-07-19T03:43:08;17.93;118.99
70867;HTU21D;58487;53.474;49.470;2022-07-19T03:45:34;17.95;118.99
70867;HTU21D;58487;53.474;49.470;2022-07-19T03:48:00;18.25;118.99
70867;HTU21D;58487;53.474;49.470;2022-07-19T03:50:27;17.28;105.16
70867;HTU21D;58487;53.474;49.470;2022-07-19T03:52:53;17.66;106.59
70867;HTU21D;58487;53.474;49.470;2022-07-19T03:55:19;18.25;77.11
70867;HTU21D;58487;53.474;49.470;2022-07-19T03:57:45;17.77;82.95
70867;HTU21D;58487;53.474;49.470;2022-07-19T04:00:11;17.98;93.96
70867;HTU21D;58487;53.474;49.470;2022-07-19T04:02:37;18.26;79.62
70867;HTU21D;58487;53.474;49.470;2022-07-19T04:05:04;17.94;87.16
70867;HTU21D;58487;53.474;49.470;2022-07-19T04:07:30;18.21;89.79
70867;HTU21D;58487;53.474;49.470;2022-07-19T04:09:56;18.15;87.11
70867;HTU21D;58487;53.474;49.470;2022-07-19T04:12:22;18.03;97.48
70867;HTU21D;58487;53.474;49.470;2022-07-19T04:14:48;17.95;102.63
70867;HTU21D;58487;53.474;49.470;2022-07-19T04:17:14;17.90;91.46
70867;HTU21D;58487;53.474;49.470;2022-07-19T04:19:40;18.07;79.29
70867;HTU21D;58487;53.474;49.470;2022-07-19T04:22:06;17.88;111.94
70867;HTU21D;58487;53.474;49.470;2022-07-19T04:24:32;14.27;118.99
70867;HTU21D;58487;53.474;49.470;2022-07-19T04:26:58;18.12;98.77
70867;HTU21D;58487;53.474;49.470;2022-07-19T04:29:24;17.96;118.99
70867;HTU21D;58487;53.474;49.470;2022-07-19T04:31:50;16.02;118.99
70867;HTU21D;58487;53.474;49.470;2022-07-19T04:34:16;17.14;118.99
70867;HTU21D;58487;53.474;49.470;2022-07-19T04:36:42;16.61;118.99
70867;HTU21D;58487;53.474;49.470;2022-07-19T04:39:08;16.79;118.99
70867;HTU21D;58487;53.474;49.470;2022-07-19T04:41:34;16.75;118.99
70867;HTU21D;58487;53.474;49.470;2022-07-19T04:44:00;16.67;118.99
70867;HTU21D;58487;53.474;49.470;2022-07-19T04:46:26;16.50;118.99
70867;HTU21D;58487;53.474;49.470;2022-07-19T04:48:52;16.57;118.99
70867;HTU21D;58487;53.474;49.470;2022-07-19T04:51:18;16.62;118.99
70867;HTU21D;58487;53.474;49.470;2022-07-19T04:53:44;16.61;118.99
70867;HTU21D;58487;53.474;49.470;2022-07-19T04:56:10;16.62;118.99
70867;HTU21D;58487;53.474;49.470;2022-07-19T04:58:36;17.06;76.58
70867;HTU21D;58487;53.474;49.470;2022-07-19T05:01:02;17.38;118.99
70867;HTU21D;58487;53.474;49.470;2022-07-19T05:03:28;16.47;118.99
70867;HTU21D;58487;53.474;49.470;2022-07-19T05:05:54;16.01;118.99
70867;HTU21D;58487;53.474;49.470;2022-07-19T05:08:20;15.71;118.99
70867;HTU21D;58487;53.474;49.470;2022-07-19T05:10:46;15.93;118.99
70867;HTU21D;58487;53.474;49.470;2022-07-19T05:13:12;16.52;118.99
70867;HTU21D;58487;53.474;49.470;2022-07-19T05:15:38;16.65;118.99
70867;HTU21D;58487;53.474;49.470;2022-07-19T05:18:04;16.29;118.99
70867;HTU21D;58487;53.474;49.470;2022-07-19T05:20:30;15.76;118.99
70867;HTU21D;58487;53.474;49.470;2022-07-19T05:22:57;16.01;118.99
70867;HTU21D;58487;53.474;49.470;2022-07-19T05:25:22;16.12;118.99
70867;HTU21D;58487;53.474;49.470;2022-07-19T05:27:49;15.67;118.99
70867;HTU21D;58487;53.474;49.470;2022-07-19T05:30:15;16.14;118.99
70867;HTU21D;58487;53.474;49.470;2022-07-19T05:32:42;14.85;118.99
70867;HTU21D;58487;53.474;49.470;2022-07-19T05:35:08;14.88;118.99
70867;HTU21D;58487;53.474;49.470;2022-07-19T05:37:34;16.19;118.99
70867;HTU21D;58487;53.474;49.470;2022-07-19T05:40:01;15.92;118.99
70867;HTU21D;58487;53.474;49.470;2022-07-19T05:42:27;16.44;118.99
70867;HTU21D;58487;53.474;49.470;2022-07-19T05:44:53;16.69;118.99
70867;HTU21D;58487;53.474;49.470;2022-07-19T05:47:19;16.55;118.99
70867;HTU21D;58487;53.474;49.470;2022-07-19T05:49:45;16.13;118.99
70867;HTU21D;58487;53.474;49.470;2022-07-19T05:52:11;16.00;118.99
70867;HTU21D;58487;53.474;49.470;2022-07-19T05:54:37;16.33;118.99
70867;HTU21D;58487;53.474;49.470;2022-07-19T05:57:03;16.75;118.99
70867;HTU21D;58487;53.474;49.470;2022-07-19T05:59:29;16.58;118.99
70867;HTU21D;58487;53.474;49.470;2022-07-19T06:01:55;14.72;118.99
70867;HTU21D;58487;53.474;49.470;2022-07-19T06:04:21;14.48;118.99
70867;HTU21D;58487;53.474;49.470;2022-07-19T06:06:48;14.83;118.99
70867;HTU21D;58487;53.474;49.470;2022-07-19T06:09:14;15.31;118.99
70867;HTU21D;58487;53.474;49.470;2022-07-19T06:11:41;13.11;118.99
70867;HTU21D;58487;53.474;49.470;2022-07-19T06:14:08;14.32;118.99
70867;HTU21D;58487;53.474;49.470;2022-07-19T06:16:35;14.53;118.99
70867;HTU21D;58487;53.474;49.470;2022-07-19T06:19:04;8.91;118.99
70867;HTU21D;58487;53.474;49.470;2022-07-19T06:21:31;13.22;118.99
70867;HTU21D;58487;53.474;49.470;2022-07-19T06:23:57;11.47;118.99
70867;HTU21D;58487;53.474;49.470;2022-07-19T06:26:23;16.63;118.99
70867;HTU21D;58487;53.474;49.470;2022-07-19T06:28:51;16.90;118.99
70867;HTU21D;58487;53.474;49.470;2022-07-19T06:31:17;15.85;118.99
70867;HTU21D;58487;53.474;49.470;2022-07-19T06:33:45;16.50;118.99
70867;HTU21D;58487;53.474;49.470;2022-07-19T06:36:12;16.55;118.99
70867;HTU21D;58487;53.474;49.470;2022-07-19T06:38:38;15.96;118.99
70867;HTU21D;58487;53.474;49.470;2022-07-19T06:41:05;13.99;118.99
70867;HTU21D;58487;53.474;49.470;2022-07-19T06:43:31;14.12;118.99
70867;HTU21D;58487;53.474;49.470;2022-07-19T06:45:57;14.40;118.99
70867;HTU21D;58487;53.474;49.470;2022-07-19T06:48:23;15.91;118.99
70867;HTU21D;58487;53.474;49.470;2022-07-19T06:50:49;15.68;118.99
70867;HTU21D;58487;53.474;49.470;2022-07-19T06:53:16;15.03;118.99
70867;HTU21D;58487;53.474;49.470;2022-07-19T06:55:42;15.99;118.99
70867;HTU21D;58487;53.474;49.470;2022-07-19T06:58:08;16.49;118.99
70867;HTU21D;58487;53.474;49.470;2022-07-19T07:00:34;14.53;118.99
70867;HTU21D;58487;53.474;49.470;2022-07-19T07:03:00;15.28;118.99
70867;HTU21D;58487;53.474;49.470;2022-07-19T07:05:26;15.10;118.99
70867;HTU21D;58487;53.474;49.470;2022-07-19T07:07:52;15.22;118.99
70867;HTU21D;58487;53.474;49.470;2022-07-19T07:10:20;15.32;118.99
70867;HTU21D;58487;53.474;49.470;2022-07-19T07:12:46;16.16;118.99
70867;HTU21D;58487;53.474;49.470;2022-07-19T07:15:12;16.45;118.99
70867;HTU21D;58487;53.474;49.470;2022-07-19T07:17:38;16.61;118.99
70867;HTU21D;58487;53.474;49.470;2022-07-19T07:20:06;16.93;118.99
70867;HTU21D;58487;53.474;49.470;2022-07-19T07:22:34;16.92;118.99
70867;HTU21D;58487;53.474;49.470;2022-07-19T07:25:01;15.13;118.99
70867;HTU21D;58487;53.474;49.470;2022-07-19T07:27:27;16.27;118.99
70867;HTU21D;58487;53.474;49.470;2022-07-19T07:29:53;16.46;118.99
70867;HTU21D;58487;53.474;49.470;2022-07-19T07:32:20;15.76;118.99
70867;HTU21D;58487;53.474;49.470;2022-07-19T07:34:46;17.52;118.99
70867;HTU21D;58487;53.474;49.470;2022-07-19T07:37:12;17.10;118.99
70867;HTU21D;58487;53.474;49.470;2022-07-19T07:39:39;16.69;118.99
70867;HTU21D;58487;53.474;49.470;2022-07-19T07:42:06;17.34;118.99
70867;HTU21D;58487;53.474;49.470;2022-07-19T07:44:32;17.50;118.99
70867;HTU21D;58487;53.474;49.470;2022-07-19T07:46:58;16.77;118.99
70867;HTU21D;58487;53.474;49.470;2022-07-19T07:49:24;16.40;118.99
70867;HTU21D;58487;53.474;49.470;2022-07-19T07:51:50;17.15;118.99
70867;HTU21D;58487;53.474;49.470;2022-07-19T07:54:16;16.90;118.99
70867;HTU21D;58487;53.474;49.470;2022-07-19T07:56:43;16.65;118.99
70867;HTU21D;58487;53.474;49.470;2022-07-19T07:59:09;17.45;118.99
70867;HTU21D;58487;53.474;49.470;2022-07-19T08:01:35;17.18;118.99
70867;HTU21D;58487;53.474;49.470;2022-07-19T08:07:40;17.01;118.99
70867;HTU21D;58487;53.474;49.470;2022-07-19T08:10:08;17.20;118.99
70867;HTU21D;58487;53.474;49.470;2022-07-19T08:12:35;17.22;118.99
70867;HTU21D;58487;53.474;49.470;2022-07-19T08:15:02;17.15;118.99
70867;HTU21D;58487;53.474;49.470;2022-07-19T08:17:28;17.60;118.99
70867;HTU21D;58487;53.474;49.470;2022-07-19T08:19:54;17.58;118.99
70867;HTU21D;58487;53.474;49.470;2022-07-19T08:22:20;17.32;118.99
70867;HTU21D;58487;53.474;49.470;2022-07-19T08:24:46;17.10;118.99
70867;HTU21D;58487;53.474;49.470;2022-07-19T08:27:12;17.13;118.99
70867;HTU21D;58487;53.474;49.470;2022-07-19T08:29:39;16.92;118.99
70867;HTU21D;58487;53.474;49.470;2022-07-19T08:32:05;16.90;118.99
70867;HTU21D;58487;53.474;49.470;2022-07-19T08:34:31;17.13;118.99
70867;HTU21D;58487;53.474;49.470;2022-07-19T08:36:57;16.50;118.99
70867;HTU21D;58487;53.474;49.470;2022-07-19T08:39:25;16.65;118.99
70867;HTU21D;58487;53.474;49.470;2022-07-19T08:41:51;16.92;118.99
70867;HTU21D;58487;53.474;49.470;2022-07-19T08:44:18;17.02;118.99
70867;HTU21D;58487;53.474;49.470;2022-07-19T08:46:45;16.40;118.99
70867;HTU21D;58487;53.474;49.470;2022-07-19T08:49:12;16.57;118.99
70867;HTU21D;58487;53.474;49.470;2022-07-19T08:51:39;17.98;118.99
70867;HTU21D;58487;53.474;49.470;2022-07-19T08:54:06;18.86;118.99
70867;HTU21D;58487;53.474;49.470;2022-07-19T08:56:32;17.47;118.99
70867;HTU21D;58487;53.474;49.470;2022-07-19T08:59:17;17.10;118.99
70867;HTU21D;58487;53.474;49.470;2022-07-19T09:01:43;16.44;118.99
70867;HTU21D;58487;53.474;49.470;2022-07-19T09:06:44;17.68;118.99
70867;HTU21D;58487;53.474;49.470;2022-07-19T09:09:12;16.88;118.99
70867;HTU21D;58487;53.474;49.470;2022-07-19T09:11:41;17.50;118.99
70867;HTU21D;58487;53.474;49.470;2022-07-19T09:14:16;18.65;118.99
70867;HTU21D;58487;53.474;49.470;2022-07-19T09:19:19;18.89;118.99
70867;HTU21D;58487;53.474;49.470;2022-07-19T09:21:56;18.64;118.99
70867;HTU21D;58487;53.474;49.470;2022-07-19T09:24:23;18.67;118.99
70867;HTU21D;58487;53.474;49.470;2022-07-19T09:27:00;18.17;118.99
70867;HTU21D;58487;53.474;49.470;2022-07-19T09:29:27;18.32;118.99
70867;HTU21D;58487;53.474;49.470;2022-07-19T09:32:04;18.72;118.99
70867;HTU21D;58487;53.474;49.470;2022-07-19T09:34:41;18.96;118.99
70867;HTU21D;58487;53.474;49.470;2022-07-19T09:39:49;19.71;118.99
70867;HTU21D;58487;53.474;49.470;2022-07-19T09:42:25;19.84;118.99
70867;HTU21D;58487;53.474;49.470;2022-07-19T09:45:01;18.79;118.99
70867;HTU21D;58487;53.474;49.470;2022-07-19T09:47:36;19.41;118.99
70867;HTU21D;58487;53.474;49.470;2022-07-19T09:50:07;19.59;118.99
70867;HTU21D;58487;53.474;49.470;2022-07-19T09:52:34;20.62;118.99
70867;HTU21D;58487;53.474;49.470;2022-07-19T09:55:04;20.32;118.99
70867;HTU21D;58487;53.474;49.470;2022-07-19T09:57:40;20.45;118.99
70867;HTU21D;58487;53.474;49.470;2022-07-19T10:00:08;20.74;118.99
70867;HTU21D;58487;53.474;49.470;2022-07-19T10:02:38;21.20;118.99
70867;HTU21D;58487;53.474;49.470;2022-07-19T10:05:05;21.16;118.99
70867;HTU21D;58487;53.474;49.470;2022-07-19T10:07:32;20.72;118.99
70867;HTU21D;58487;53.474;49.470;2022-07-19T10:10:07;20.41;118.99
70867;HTU21D;58487;53.474;49.470;2022-07-19T10:12:40;20.18;118.99
70867;HTU21D;58487;53.474;49.470;2022-07-19T10:15:08;20.98;118.99
70867;HTU21D;58487;53.474;49.470;2022-07-19T10:17:38;20.25;118.99
70867;HTU21D;58487;53.474;49.470;2022-07-19T10:20:07;20.20;118.99
70867;HTU21D;58487;53.474;49.470;2022-07-19T10:22:38;21.46;118.99
70867;HTU21D;58487;53.474;49.470;2022-07-19T10:25:14;20.53;118.99
70867;HTU21D;58487;53.474;49.470;2022-07-19T10:27:46;20.57;118.99
70867;HTU21D;58487;53.474;49.470;2022-07-19T10:32:41;19.92;118.99
70867;HTU21D;58487;53.474;49.470;2022-07-19T10:37:56;21.36;118.99
70867;HTU21D;58487;53.474;49.470;2022-07-19T10:43:06;20.02;118.99
70867;HTU21D;58487;53.474;49.470;2022-07-19T10:45:32;19.52;118.99
70867;HTU21D;58487;53.474;49.470;2022-07-19T10:48:00;19.56;118.99
70867;HTU21D;58487;53.474;49.470;2022-07-19T10:50:42;19.37;118.99
70867;HTU21D;58487;53.474;49.470;2022-07-19T10:53:08;19.42;118.99
70867;HTU21D;58487;53.474;49.470;2022-07-19T10:55:34;20.88;118.99
70867;HTU21D;58487;53.474;49.470;2022-07-19T11:00:33;20.46;118.99
70867;HTU21D;58487;53.474;49.470;2022-07-19T11:05:59;20.98;118.99
70867;HTU21D;58487;53.474;49.470;2022-07-19T11:08:40;19.55;118.99
70867;HTU21D;58487;53.474;49.470;2022-07-19T11:11:11;19.89;118.99
70867;HTU21D;58487;53.474;49.470;2022-07-19T11:13:40;20.37;118.99
70867;HTU21D;58487;53.474;49.470;2022-07-19T11:16:08;20.80;118.99
70867;HTU21D;58487;53.474;49.470;2022-07-19T11:18:34;21.04;118.99
70867;HTU21D;58487;53.474;49.470;2022-07-19T11:21:03;21.34;118.99
70867;HTU21D;58487;53.474;49.470;2022-07-19T11:23:31;21.32;118.99
70867;HTU21D;58487;53.474;49.470;2022-07-19T11:26:13;21.44;118.99
70867;HTU21D;58487;53.474;49.470;2022-07-19T11:28:41;21.72;118.99
70867;HTU21D;58487;53.474;49.470;2022-07-19T11:31:34;22.27;118.99
70867;HTU21D;58487;53.474;49.470;2022-07-19T11:34:00;22.02;118.99
70867;HTU21D;58487;53.474;49.470;2022-07-19T11:36:27;21.53;118.99
70867;HTU21D;58487;53.474;49.470;2022-07-19T11:38:58;21.58;118.99
70867;HTU21D;58487;53.474;49.470;2022-07-19T11:41:31;20.91;118.99
70867;HTU21D;58487;53.474;49.470;2022-07-19T11:44:01;21.67;118.99
70867;HTU21D;58487;53.474;49.470;2022-07-19T11:46:33;21.74;118.99
70867;HTU21D;58487;53.474;49.470;2022-07-19T11:49:02;21.68;118.99
70867;HTU21D;58487;53.474;49.470;2022-07-19T11:51:30;20.91;118.99
70867;HTU21D;58487;53.474;49.470;2022-07-19T11:53:58;20.17;118.99
70867;HTU21D;58487;53.474;49.470;2022-07-19T11:56:29;20.25;118.99
70867;HTU21D;58487;53.474;49.470;2022-07-19T11:58:57;19.25;118.99
70867;HTU21D;58487;53.474;49.470;2022-07-19T12:01:31;19.17;118.99
70867;HTU21D;58487;53.474;49.470;2022-07-19T12:04:12;20.22;118.99
70867;HTU21D;58487;53.474;49.470;2022-07-19T12:06:40;20.68;118.99
70867;HTU21D;58487;53.474;49.470;2022-07-19T12:09:09;20.50;118.99
70867;HTU21D;58487;53.474;49.470;2022-07-19T12:11:49;20.49;118.99
70867;HTU21D;58487;53.474;49.470;2022-07-19T12:14:21;20.51;118.99
70867;HTU21D;58487;53.474;49.470;2022-07-19T12:17:08;20.31;118.99
70867;HTU21D;58487;53.474;49.470;2022-07-19T12:19:35;20.48;118.99
70867;HTU21D;58487;53.474;49.470;2022-07-19T12:22:01;20.56;118.99
70867;HTU21D;58487;53.474;49.470;2022-07-19T12:24:28;20.64;118.99
70867;HTU21D;58487;53.474;49.470;2022-07-19T12:27:06;21.43;118.99
70867;HTU21D;58487;53.474;49.470;2022-07-19T12:32:09;21.75;118.99
70867;HTU21D;58487;53.474;49.470;2022-07-19T12:34:50;21.91;118.99
70867;HTU21D;58487;53.474;49.470;2022-07-19T12:37:29;21.92;118.99
70867;HTU21D;58487;53.474;49.470;2022-07-19T12:40:08;22.33;118.99
70867;HTU21D;58487;53.474;49.470;2022-07-19T12:47:51;20.76;118.99
70867;HTU21D;58487;53.474;49.470;2022-07-19T12:50:20;20.56;118.99
70867;HTU21D;58487;53.474;49.470;2022-07-19T12:52:47;22.25;118.99
70867;HTU21D;58487;53.474;49.470;2022-07-19T12:55:13;22.93;118.99
70867;HTU21D;58487;53.474;49.470;2022-07-19T12:57:39;23.20;118.99
70867;HTU21D;58487;53.474;49.470;2022-07-19T13:00:05;23.59;118.99
70867;HTU21D;58487;53.474;49.470;2022-07-19T13:02:31;23.72;118.99
70867;HTU21D;58487;53.474;49.470;2022-07-19T13:04:58;24.38;118.99
70867;HTU21D;58487;53.474;49.470;2022-07-19T13:07:24;23.75;118.99
70867;HTU21D;58487;53.474;49.470;2022-07-19T13:09:50;23.38;118.99
70867;HTU21D;58487;53.474;49.470;2022-07-19T13:12:16;22.58;118.99
70867;HTU21D;58487;53.474;49.470;2022-07-19T13:14:42;22.96;118.99
70867;HTU21D;58487;53.474;49.470;2022-07-19T13:17:08;23.18;118.99
70867;HTU21D;58487;53.474;49.470;2022-07-19T13:19:38;23.22;118.99
70867;HTU21D;58487;53.474;49.470;2022-07-19T13:22:05;23.35;118.99
70867;HTU21D;58487;53.474;49.470;2022-07-19T13:24:32;23.71;118.99
70867;HTU21D;58487;53.474;49.470;2022-07-19T13:26:58;24.33;118.99
70867;HTU21D;58487;53.474;49.470;2022-07-19T13:29:24;24.91;118.99
70867;HTU21D;58487;53.474;49.470;2022-07-19T13:31:50;25.32;118.99
70867;HTU21D;58487;53.474;49.470;2022-07-19T13:34:16;25.47;118.99
70867;HTU21D;58487;53.474;49.470;2022-07-19T13:36:43;25.49;118.99
70867;HTU21D;58487;53.474;49.470;2022-07-19T13:39:10;25.51;118.99
70867;HTU21D;58487;53.474;49.470;2022-07-19T13:41:40;25.61;118.99
70867;HTU21D;58487;53.474;49.470;2022-07-19T13:44:06;26.18;118.99
70867;HTU21D;58487;53.474;49.470;2022-07-19T13:46:32;25.23;118.99
70867;HTU21D;58487;53.474;49.470;2022-07-19T13:48:58;25.57;118.99
70867;HTU21D;58487;53.474;49.470;2022-07-19T13:51:24;25.40;118.99
70867;HTU21D;58487;53.474;49.470;2022-07-19T13:53:51;25.42;118.99
70867;HTU21D;58487;53.474;49.470;2022-07-19T13:56:17;25.22;118.99
70867;HTU21D;58487;53.474;49.470;2022-07-19T13:58:44;25.97;118.99
70867;HTU21D;58487;53.474;49.470;2022-07-19T14:01:10;25.99;118.99
70867;HTU21D;58487;53.474;49.470;2022-07-19T14:03:37;25.81;118.99
70867;HTU21D;58487;53.474;49.470;2022-07-19T14:06:03;26.13;118.99
70867;HTU21D;58487;53.474;49.470;2022-07-19T14:08:29;25.50;118.99
70867;HTU21D;58487;53.474;49.470;2022-07-19T14:10:55;25.39;118.99
70867;HTU21D;58487;53.474;49.470;2022-07-19T14:13:21;25.87;118.99
70867;HTU21D;58487;53.474;49.470;2022-07-19T14:15:50;25.09;118.99
70867;HTU21D;58487;53.474;49.470;2022-07-19T14:18:16;24.62;118.99
70867;HTU21D;58487;53.474;49.470;2022-07-19T14:20:42;24.65;118.99
70867;HTU21D;58487;53.474;49.470;2022-07-19T14:23:10;24.69;118.99
70867;HTU21D;58487;53.474;49.470;2022-07-19T14:25:37;25.43;118.99
70867;HTU21D;58487;53.474;49.470;2022-07-19T14:28:03;25.50;118.99
70867;HTU21D;58487;53.474;49.470;2022-07-19T14:30:30;25.73;118.99
70867;HTU21D;58487;53.474;49.470;2022-07-19T14:32:56;26.19;118.99
70867;HTU21D;58487;53.474;49.470;2022-07-19T14:35:22;25.79;118.99
70867;HTU21D;58487;53.474;49.470;2022-07-19T14:37:51;26.93;118.99
70867;HTU21D;58487;53.474;49.470;2022-07-19T14:40:17;26.52;118.99
70867;HTU21D;58487;53.474;49.470;2022-07-19T14:42:43;27.17;118.99
70867;HTU21D;58487;53.474;49.470;2022-07-19T14:45:09;26.38;118.99
70867;HTU21D;58487;53.474;49.470;2022-07-19T14:47:36;26.10;118.99
70867;HTU21D;58487;53.474;49.470;2022-07-19T14:50:04;26.36;118.99
70867;HTU21D;58487;53.474;49.470;2022-07-19T14:52:30;26.27;118.99
70867;HTU21D;58487;53.474;49.470;2022-07-19T14:54:56;26.84;118.99
70867;HTU21D;58487;53.474;49.470;2022-07-19T14:57:23;26.72;118.99
70867;HTU21D;58487;53.474;49.470;2022-07-19T14:59:49;27.07;118.99
70867;HTU21D;58487;53.474;49.470;2022-07-19T15:02:17;27.35;118.99
70867;HTU21D;58487;53.474;49.470;2022-07-19T15:04:43;27.43;118.99
70867;HTU21D;58487;53.474;49.470;2022-07-19T15:07:09;27.47;118.99
70867;HTU21D;58487;53.474;49.470;2022-07-19T15:09:35;27.15;118.99
70867;HTU21D;58487;53.474;49.470;2022-07-19T15:12:02;26.75;118.99
70867;HTU21D;58487;53.474;49.470;2022-07-19T15:14:30;26.92;118.99
70867;HTU21D;58487;53.474;49.470;2022-07-19T15:17:00;24.76;118.99
70867;HTU21D;58487;53.474;49.470;2022-07-19T15:19:26;25.45;118.99
70867;HTU21D;58487;53.474;49.470;2022-07-19T15:21:53;25.42;118.99
70867;HTU21D;58487;53.474;49.470;2022-07-19T15:24:19;24.62;118.99